createdAt,value
2022-08-29T00:00:21.967Z,367.56
2022-08-29T00:05:32.569Z,366.98
2022-08-29T00:10:39.762Z,367.10
2022-08-29T00:15:46.937Z,366.80
2022-08-29T00:20:54.122Z,366.55
2022-08-29T00:26:01.323Z,367.18
2022-08-29T00:31:08.513Z,367.39
2022-08-29T00:36:15.783Z,367.14
2022-08-29T00:41:22.950Z,367.42
2022-08-29T00:46:30.157Z,367.44
2022-08-29T00:51:37.334Z,367.35
2022-08-29T00:56:44.625Z,367.39
2022-08-29T01:01:51.833Z,367.08
2022-08-29T01:07:01.090Z,367.14
2022-08-29T01:12:08.289Z,367.44
2022-08-29T01:17:15.546Z,367.51
2022-08-29T01:22:22.762Z,367.43
2022-08-29T01:27:29.920Z,367.68
2022-08-29T01:32:37.102Z,367.99
2022-08-29T01:37:44.307Z,368.20
2022-08-29T01:42:51.505Z,368.08
2022-08-29T01:48:02.965Z,368.53
2022-08-29T01:53:05.835Z,368.58
2022-08-29T01:58:16.478Z,368.85
2022-08-29T02:03:23.548Z,369.20
2022-08-29T02:08:30.811Z,368.74
2022-08-29T02:13:41.036Z,368.10
2022-08-29T02:18:48.317Z,368.08
2022-08-29T02:23:55.600Z,368.28
2022-08-29T02:29:05.592Z,367.87
2022-08-29T02:34:12.776Z,368.01
2022-08-29T02:39:19.961Z,368.45
2022-08-29T02:44:27.144Z,367.90
2022-08-29T02:49:34.526Z,367.97
2022-08-29T02:54:41.566Z,368.44
2022-08-29T02:59:48.811Z,368.35
2022-08-29T03:04:55.995Z,367.69
2022-08-29T03:10:03.167Z,367.87
2022-08-29T03:15:10.357Z,367.43
2022-08-29T03:20:17.737Z,367.23
2022-08-29T03:25:24.929Z,366.82
2022-08-29T03:30:32.156Z,367.32
2022-08-29T03:35:39.408Z,367.27
2022-08-29T03:40:46.695Z,366.74
2022-08-29T03:45:53.847Z,366.90
2022-08-29T03:51:01.052Z,367.08
2022-08-29T03:56:08.341Z,366.51
2022-08-29T04:01:15.571Z,366.78
2022-08-29T04:06:22.806Z,366.80
2022-08-29T04:11:29.997Z,366.44
2022-08-29T04:16:37.246Z,366.17
2022-08-29T04:21:44.376Z,366.18
2022-08-29T04:26:51.650Z,365.80
2022-08-29T04:31:58.814Z,365.30
2022-08-29T04:37:06.001Z,364.86
2022-08-29T04:42:18.241Z,364.97
2022-08-29T04:47:21.103Z,365.04
2022-08-29T04:52:28.359Z,364.29
2022-08-29T04:57:35.579Z,364.02
2022-08-29T05:02:42.756Z,363.50
2022-08-29T05:07:51.579Z,362.90
2022-08-29T05:12:58.842Z,362.34
2022-08-29T05:18:11.505Z,361.99
2022-08-29T05:23:18.706Z,361.08
2022-08-29T05:28:25.895Z,361.82
2022-08-29T05:33:33.349Z,361.94
2022-08-29T05:38:40.610Z,361.48
2022-08-29T05:43:47.852Z,361.38
2022-08-29T05:48:55.256Z,361.04
2022-08-29T05:54:02.523Z,360.82
2022-08-29T05:59:09.782Z,360.85
2022-08-29T06:04:17.075Z,360.74
2022-08-29T06:09:24.270Z,360.46
2022-08-29T06:14:31.453Z,360.09
2022-08-29T06:19:38.630Z,359.62
2022-08-29T06:24:49.350Z,360.10
2022-08-29T06:30:00.102Z,359.86
2022-08-29T06:35:03.952Z,359.55
2022-08-29T06:40:13.166Z,359.27
2022-08-29T06:45:20.417Z,359.21
2022-08-29T06:50:27.699Z,359.33
2022-08-29T06:55:35.171Z,358.91
2022-08-29T07:00:46.150Z,358.63
2022-08-29T07:05:49.764Z,358.62
2022-08-29T07:10:57.302Z,358.68
2022-08-29T07:16:09.149Z,358.65
2022-08-29T07:21:20.339Z,359.02
2022-08-29T07:26:23.598Z,358.75
2022-08-29T07:31:31.243Z,359.03
2022-08-29T07:36:38.016Z,359.02
2022-08-29T07:41:45.300Z,358.52
2022-08-29T07:46:52.536Z,358.93
2022-08-29T07:51:59.749Z,358.75
2022-08-29T07:57:07.150Z,358.83
2022-08-29T08:02:14.670Z,358.55
2022-08-29T08:07:21.695Z,358.75
2022-08-29T08:12:28.970Z,358.97
2022-08-29T08:17:36.169Z,358.96
2022-08-29T08:22:43.326Z,359.15
2022-08-29T08:27:50.505Z,359.16
2022-08-29T08:32:57.895Z,358.71
2022-08-29T08:38:05.096Z,358.79
2022-08-29T08:43:12.271Z,359.05
2022-08-29T08:48:19.499Z,359.42
2022-08-29T08:53:26.731Z,359.63
2022-08-29T08:58:33.907Z,359.06
2022-08-29T09:03:41.131Z,358.74
2022-08-29T09:08:48.385Z,359.29
2022-08-29T09:13:55.563Z,359.26
2022-08-29T09:19:02.763Z,359.09
2022-08-29T09:24:09.937Z,359.21
2022-08-29T09:29:17.349Z,358.82
2022-08-29T09:34:24.505Z,358.48
2022-08-29T09:39:31.766Z,358.51
2022-08-29T09:44:39.095Z,358.41
2022-08-29T09:49:46.266Z,358.77
2022-08-29T09:54:53.660Z,358.73
2022-08-29T10:00:00.858Z,359.13
2022-08-29T10:05:13.057Z,360.04
2022-08-29T10:10:16.621Z,359.96
2022-08-29T10:15:47.018Z,360.02
2022-08-29T10:20:31.347Z,360.59
2022-08-29T10:25:38.597Z,360.40
2022-08-29T10:30:45.853Z,360.44
2022-08-29T10:35:54.731Z,360.60
2022-08-29T10:41:00.253Z,360.67
2022-08-29T10:46:07.580Z,361.08
2022-08-29T10:51:14.798Z,361.15
2022-08-29T10:56:21.974Z,360.99
2022-08-29T11:01:29.265Z,360.85
2022-08-29T11:11:43.826Z,360.86
2022-08-29T11:16:51.049Z,361.49
2022-08-29T11:21:58.226Z,361.71
2022-08-29T11:27:05.469Z,362.31
2022-08-29T11:32:16.312Z,362.13
2022-08-29T11:37:23.524Z,362.26
2022-08-29T11:47:41.044Z,362.30
2022-08-29T11:52:45.135Z,362.68
2022-08-29T11:57:52.411Z,363.15
2022-08-29T12:02:59.597Z,363.55
2022-08-29T12:08:33.331Z,363.83
2022-08-29T12:13:14.227Z,364.15
2022-08-29T12:18:21.331Z,364.05
2022-08-29T12:23:28.441Z,365.15
2022-08-29T12:28:35.641Z,364.97
2022-08-29T12:33:42.805Z,364.67
2022-08-29T12:38:50.274Z,366.08
2022-08-29T12:43:57.478Z,366.41
2022-08-29T12:49:04.677Z,367.28
2022-08-29T12:54:11.952Z,367.66
2022-08-29T12:59:19.140Z,368.54
2022-08-29T13:04:30.977Z,368.23
2022-08-29T13:09:33.606Z,368.22
2022-08-29T13:14:40.800Z,369.17
2022-08-29T13:19:47.994Z,369.58
2022-08-29T13:24:55.197Z,369.71
2022-08-29T13:30:02.381Z,370.19
2022-08-29T13:35:09.630Z,370.55
2022-08-29T13:40:17.596Z,370.68
2022-08-29T13:45:24.826Z,370.37
2022-08-29T13:50:32.134Z,370.93
2022-08-29T13:55:39.185Z,370.51
2022-08-29T14:00:46.616Z,371.00
2022-08-29T14:05:53.567Z,371.14
2022-08-29T14:11:00.761Z,371.42
2022-08-29T14:16:08.034Z,371.91
2022-08-29T14:21:15.212Z,372.18
2022-08-29T14:26:22.397Z,372.19
2022-08-29T14:31:29.688Z,372.45
2022-08-29T14:36:43.470Z,372.58
2022-08-29T14:41:46.353Z,372.85
2022-08-29T14:46:53.551Z,372.70
2022-08-29T14:52:00.747Z,372.14
2022-08-29T14:57:07.903Z,372.42
2022-08-29T15:02:15.260Z,372.63
2022-08-29T15:07:22.272Z,372.53
2022-08-29T15:12:29.489Z,372.53
2022-08-29T15:17:36.684Z,372.48
2022-08-29T15:22:43.884Z,372.36
2022-08-29T15:27:51.127Z,372.86
2022-08-29T15:32:58.333Z,373.19
2022-08-29T15:38:05.506Z,373.43
2022-08-29T15:43:12.686Z,373.65
2022-08-29T15:48:19.869Z,374.26
2022-08-29T15:53:27.055Z,374.58
2022-08-29T15:58:36.448Z,373.81
2022-08-29T16:03:43.631Z,373.99
2022-08-29T16:08:55.324Z,374.70
2022-08-29T16:14:24.578Z,374.74
2022-08-29T16:19:05.285Z,374.93
2022-08-29T16:24:12.468Z,374.63
2022-08-29T16:29:26.254Z,375.52
2022-08-29T16:34:26.848Z,376.01
2022-08-29T16:39:34.023Z,376.45
2022-08-29T16:44:41.217Z,376.69
2022-08-29T16:49:48.499Z,376.40
2022-08-29T16:54:55.688Z,376.59
2022-08-29T17:00:03.358Z,376.44
2022-08-29T17:05:10.534Z,376.36
2022-08-29T17:10:17.754Z,376.27
2022-08-29T17:15:24.962Z,376.21
2022-08-29T17:20:36.824Z,376.09
2022-08-29T17:25:39.288Z,375.59
2022-08-29T17:30:46.530Z,375.39
2022-08-29T17:35:54.179Z,375.01
2022-08-29T17:41:01.345Z,374.52
2022-08-29T17:46:08.656Z,374.85
2022-08-29T17:51:15.789Z,374.63
2022-08-29T17:56:22.891Z,374.44
2022-08-29T18:01:32.504Z,374.12
2022-08-29T18:06:37.385Z,373.83
2022-08-29T18:11:44.612Z,372.93
2022-08-29T18:16:53.406Z,372.77
2022-08-29T18:22:01.860Z,372.38
2022-08-29T18:27:09.067Z,371.58
2022-08-29T18:32:16.414Z,371.53
2022-08-29T18:37:23.630Z,371.26
2022-08-29T18:42:40.384Z,370.78
2022-08-29T18:47:38.060Z,370.17
2022-08-29T18:52:45.279Z,369.87
2022-08-29T18:57:52.605Z,369.50
2022-08-29T19:02:59.847Z,369.11
2022-08-29T19:08:07.044Z,368.89
2022-08-29T19:13:14.464Z,368.66
2022-08-29T19:18:21.589Z,367.91
2022-08-29T19:23:29.192Z,367.94
2022-08-29T19:28:36.753Z,368.44
2022-08-29T19:33:49.927Z,367.79
2022-08-29T19:38:57.169Z,367.63
2022-08-29T19:44:04.863Z,367.38
2022-08-29T19:49:12.134Z,366.92
2022-08-29T19:54:19.411Z,366.72
2022-08-29T19:59:26.649Z,365.94
2022-08-29T20:04:33.902Z,365.66
2022-08-29T20:09:41.175Z,365.41
2022-08-29T20:14:50.055Z,365.01
2022-08-29T20:19:57.236Z,364.67
2022-08-29T20:25:04.522Z,364.61
2022-08-29T20:30:11.704Z,364.83
2022-08-29T20:35:18.888Z,364.40
2022-08-29T20:40:26.205Z,364.56
2022-08-29T20:45:35.567Z,364.26
2022-08-29T20:50:42.761Z,364.27
2022-08-29T20:55:50.014Z,363.75
2022-08-29T21:00:57.287Z,363.38
2022-08-29T21:06:04.430Z,362.77
2022-08-29T21:11:14.529Z,362.65
2022-08-29T21:16:18.839Z,362.41
2022-08-29T21:21:28.985Z,362.33
2022-08-29T21:26:36.266Z,362.17
2022-08-29T21:31:43.530Z,362.41
2022-08-29T21:36:50.748Z,362.63
2022-08-29T21:41:57.953Z,362.77
2022-08-29T21:47:05.201Z,362.71
2022-08-29T21:52:12.333Z,362.93
2022-08-29T21:57:19.491Z,362.96
2022-08-29T22:02:26.769Z,363.07
2022-08-29T22:07:33.869Z,362.76
2022-08-29T22:12:41.048Z,362.81
2022-08-29T22:17:48.211Z,363.47
2022-08-29T22:22:55.413Z,363.33
2022-08-29T22:28:02.592Z,363.42
2022-08-29T22:33:16.308Z,363.26
2022-08-29T22:38:18.783Z,363.46
2022-08-29T22:43:25.929Z,363.05
2022-08-29T22:48:33.143Z,363.63
2022-08-29T22:53:40.331Z,363.62
2022-08-29T22:58:47.591Z,364.07
2022-08-29T23:03:54.797Z,364.11
2022-08-29T23:09:01.985Z,364.08
2022-08-29T23:14:09.157Z,363.90
2022-08-29T23:19:16.426Z,363.47
2022-08-29T23:24:23.618Z,362.63
2022-08-29T23:29:30.794Z,362.84
2022-08-29T23:34:37.983Z,362.77
2022-08-29T23:39:45.178Z,362.96
2022-08-29T23:44:52.375Z,362.94
2022-08-29T23:49:59.553Z,362.66
2022-08-29T23:55:06.792Z,362.71
